sensor_id;sensor_type;location;lat;lon;timestamp;P1;durP1;ratioP1;P2;durP2;ratioP2
5357;SDS011;2702;51.014;7.170;2023-04-24T00:00:15;0.70;;;0.60;;
5357;SDS011;2702;51.014;7.170;2023-04-24T00:02:43;0.80;;;0.80;;
5357;SDS011;2702;51.014;7.170;2023-04-24T00:05:12;0.83;;;0.70;;
5357;SDS011;2702;51.014;7.170;2023-04-24T00:07:40;1.10;;;1.00;;
5357;SDS011;2702;51.014;7.170;2023-04-24T00:10:08;0.70;;;0.70;;
5357;SDS011;2702;51.014;7.170;2023-04-24T00:12:34;0.60;;;0.60;;
5357;SDS011;2702;51.014;7.170;2023-04-24T00:15:00;0.60;;;0.60;;
5357;SDS011;2702;51.014;7.170;2023-04-24T00:17:27;0.83;;;0.80;;
5357;SDS011;2702;51.014;7.170;2023-04-24T00:19:53;1.23;;;1.03;;
5357;SDS011;2702;51.014;7.170;2023-04-24T00:22:26;0.70;;;0.70;;
5357;SDS011;2702;51.014;7.170;2023-04-24T00:24:53;1.07;;;0.97;;
5357;SDS011;2702;51.014;7.170;2023-04-24T00:27:19;0.90;;;0.90;;
5357;SDS011;2702;51.014;7.170;2023-04-24T00:29:45;1.37;;;0.97;;
5357;SDS011;2702;51.014;7.170;2023-04-24T00:32:12;0.73;;;0.73;;
5357;SDS011;2702;51.014;7.170;2023-04-24T00:34:39;1.03;;;0.93;;
5357;SDS011;2702;51.014;7.170;2023-04-24T00:37:05;1.33;;;1.10;;
5357;SDS011;2702;51.014;7.170;2023-04-24T00:39:31;1.53;;;0.90;;
5357;SDS011;2702;51.014;7.170;2023-04-24T00:41:57;0.90;;;0.90;;
5357;SDS011;2702;51.014;7.170;2023-04-24T00:44:24;2.63;;;1.10;;
5357;SDS011;2702;51.014;7.170;2023-04-24T00:46:50;1.00;;;1.00;;
5357;SDS011;2702;51.014;7.170;2023-04-24T00:49:22;1.50;;;0.93;;
5357;SDS011;2702;51.014;7.170;2023-04-24T00:51:48;1.43;;;0.90;;
5357;SDS011;2702;51.014;7.170;2023-04-24T00:54:16;1.30;;;1.10;;
5357;SDS011;2702;51.014;7.170;2023-04-24T00:56:43;0.97;;;0.93;;
5357;SDS011;2702;51.014;7.170;2023-04-24T00:59:13;0.93;;;0.93;;
5357;SDS011;2702;51.014;7.170;2023-04-24T01:01:42;1.10;;;1.10;;
5357;SDS011;2702;51.014;7.170;2023-04-24T01:04:11;1.00;;;1.00;;
5357;SDS011;2702;51.014;7.170;2023-04-24T01:06:39;1.30;;;1.20;;
5357;SDS011;2702;51.014;7.170;2023-04-24T01:09:06;1.80;;;1.00;;
5357;SDS011;2702;51.014;7.170;2023-04-24T01:11:36;1.20;;;1.10;;
5357;SDS011;2702;51.014;7.170;2023-04-24T01:14:02;1.30;;;1.20;;
5357;SDS011;2702;51.014;7.170;2023-04-24T01:16:29;1.30;;;1.20;;
5357;SDS011;2702;51.014;7.170;2023-04-24T01:18:55;1.40;;;1.30;;
5357;SDS011;2702;51.014;7.170;2023-04-24T01:21:21;1.23;;;1.13;;
5357;SDS011;2702;51.014;7.170;2023-04-24T01:23:48;1.10;;;1.00;;
5357;SDS011;2702;51.014;7.170;2023-04-24T01:26:15;1.93;;;1.10;;
5357;SDS011;2702;51.014;7.170;2023-04-24T01:28:42;1.47;;;1.20;;
5357;SDS011;2702;51.014;7.170;2023-04-24T01:31:08;1.67;;;1.50;;
5357;SDS011;2702;51.014;7.170;2023-04-24T01:33:34;3.13;;;1.50;;
5357;SDS011;2702;51.014;7.170;2023-04-24T01:36:00;1.80;;;1.70;;
5357;SDS011;2702;51.014;7.170;2023-04-24T01:38:27;2.53;;;1.83;;
5357;SDS011;2702;51.014;7.170;2023-04-24T01:40:53;1.93;;;1.83;;
5357;SDS011;2702;51.014;7.170;2023-04-24T01:43:19;1.40;;;1.30;;
5357;SDS011;2702;51.014;7.170;2023-04-24T01:45:45;2.03;;;1.60;;
5357;SDS011;2702;51.014;7.170;2023-04-24T01:48:12;2.07;;;1.67;;
5357;SDS011;2702;51.014;7.170;2023-04-24T01:50:38;1.80;;;1.60;;
5357;SDS011;2702;51.014;7.170;2023-04-24T01:53:05;1.97;;;1.80;;
5357;SDS011;2702;51.014;7.170;2023-04-24T01:55:31;1.70;;;1.40;;
5357;SDS011;2702;51.014;7.170;2023-04-24T01:57:57;3.67;;;2.57;;
5357;SDS011;2702;51.014;7.170;2023-04-24T02:00:25;3.17;;;2.87;;
5357;SDS011;2702;51.014;7.170;2023-04-24T02:02:51;3.80;;;3.40;;
5357;SDS011;2702;51.014;7.170;2023-04-24T02:05:17;4.77;;;3.60;;
5357;SDS011;2702;51.014;7.170;2023-04-24T02:07:43;3.60;;;3.30;;
5357;SDS011;2702;51.014;7.170;2023-04-24T02:10:09;5.53;;;3.87;;
5357;SDS011;2702;51.014;7.170;2023-04-24T02:12:36;3.70;;;3.40;;
5357;SDS011;2702;51.014;7.170;2023-04-24T02:15:02;4.20;;;3.37;;
5357;SDS011;2702;51.014;7.170;2023-04-24T02:17:28;3.50;;;3.30;;
5357;SDS011;2702;51.014;7.170;2023-04-24T02:19:54;4.60;;;3.80;;
5357;SDS011;2702;51.014;7.170;2023-04-24T02:22:20;4.40;;;3.90;;
5357;SDS011;2702;51.014;7.170;2023-04-24T02:24:46;7.27;;;4.13;;
5357;SDS011;2702;51.014;7.170;2023-04-24T02:27:12;4.70;;;4.30;;
5357;SDS011;2702;51.014;7.170;2023-04-24T02:29:38;5.00;;;4.50;;
5357;SDS011;2702;51.014;7.170;2023-04-24T02:32:03;5.07;;;4.57;;
5357;SDS011;2702;51.014;7.170;2023-04-24T02:34:29;6.07;;;5.23;;
5357;SDS011;2702;51.014;7.170;2023-04-24T02:36:56;4.77;;;4.33;;
5357;SDS011;2702;51.014;7.170;2023-04-24T02:39:21;5.30;;;4.80;;
5357;SDS011;2702;51.014;7.170;2023-04-24T02:41:47;5.40;;;4.90;;
5357;SDS011;2702;51.014;7.170;2023-04-24T02:44:13;5.20;;;4.67;;
5357;SDS011;2702;51.014;7.170;2023-04-24T02:46:39;4.80;;;4.40;;
5357;SDS011;2702;51.014;7.170;2023-04-24T02:49:07;6.13;;;5.53;;
5357;SDS011;2702;51.014;7.170;2023-04-24T02:51:33;5.70;;;5.17;;
5357;SDS011;2702;51.014;7.170;2023-04-24T02:53:59;5.60;;;4.90;;
5357;SDS011;2702;51.014;7.170;2023-04-24T02:56:25;6.60;;;5.73;;
5357;SDS011;2702;51.014;7.170;2023-04-24T02:58:50;5.10;;;4.60;;
5357;SDS011;2702;51.014;7.170;2023-04-24T03:01:16;5.63;;;4.97;;
5357;SDS011;2702;51.014;7.170;2023-04-24T03:03:43;6.27;;;4.70;;
5357;SDS011;2702;51.014;7.170;2023-04-24T03:06:09;5.47;;;4.97;;
5357;SDS011;2702;51.014;7.170;2023-04-24T03:08:35;5.83;;;5.30;;
5357;SDS011;2702;51.014;7.170;2023-04-24T03:11:01;5.63;;;4.87;;
5357;SDS011;2702;51.014;7.170;2023-04-24T03:13:26;5.87;;;5.30;;
5357;SDS011;2702;51.014;7.170;2023-04-24T03:15:52;6.60;;;5.87;;
5357;SDS011;2702;51.014;7.170;2023-04-24T03:18:19;8.50;;;5.27;;
5357;SDS011;2702;51.014;7.170;2023-04-24T03:20:45;5.97;;;5.30;;
5357;SDS011;2702;51.014;7.170;2023-04-24T03:23:12;6.77;;;6.17;;
5357;SDS011;2702;51.014;7.170;2023-04-24T03:25:38;6.47;;;5.87;;
5357;SDS011;2702;51.014;7.170;2023-04-24T03:28:04;6.43;;;5.90;;
5357;SDS011;2702;51.014;7.170;2023-04-24T03:30:30;6.27;;;5.73;;
5357;SDS011;2702;51.014;7.170;2023-04-24T03:32:56;7.70;;;6.67;;
5357;SDS011;2702;51.014;7.170;2023-04-24T03:35:22;7.40;;;6.63;;
5357;SDS011;2702;51.014;7.170;2023-04-24T03:37:48;6.83;;;6.23;;
5357;SDS011;2702;51.014;7.170;2023-04-24T03:40:14;7.50;;;5.90;;
5357;SDS011;2702;51.014;7.170;2023-04-24T03:42:39;6.60;;;6.00;;
5357;SDS011;2702;51.014;7.170;2023-04-24T03:45:06;7.07;;;6.37;;
5357;SDS011;2702;51.014;7.170;2023-04-24T03:47:32;6.50;;;5.90;;
5357;SDS011;2702;51.014;7.170;2023-04-24T03:49:58;6.67;;;6.07;;
5357;SDS011;2702;51.014;7.170;2023-04-24T03:52:24;6.23;;;5.73;;
5357;SDS011;2702;51.014;7.170;2023-04-24T03:54:50;6.80;;;6.20;;
5357;SDS011;2702;51.014;7.170;2023-04-24T03:57:16;7.43;;;6.43;;
5357;SDS011;2702;51.014;7.170;2023-04-24T03:59:42;6.67;;;6.07;;
5357;SDS011;2702;51.014;7.170;2023-04-24T04:02:08;7.67;;;6.90;;
5357;SDS011;2702;51.014;7.170;2023-04-24T04:04:34;6.77;;;6.03;;
5357;SDS011;2702;51.014;7.170;2023-04-24T04:07:00;7.07;;;6.30;;
5357;SDS011;2702;51.014;7.170;2023-04-24T04:09:28;8.50;;;6.83;;
5357;SDS011;2702;51.014;7.170;2023-04-24T04:11:54;8.07;;;6.20;;
5357;SDS011;2702;51.014;7.170;2023-04-24T04:14:21;7.00;;;6.30;;
5357;SDS011;2702;51.014;7.170;2023-04-24T04:16:48;6.27;;;5.77;;
5357;SDS011;2702;51.014;7.170;2023-04-24T04:19:14;7.60;;;6.83;;
5357;SDS011;2702;51.014;7.170;2023-04-24T04:21:40;7.87;;;6.70;;
5357;SDS011;2702;51.014;7.170;2023-04-24T04:24:06;7.27;;;5.80;;
5357;SDS011;2702;51.014;7.170;2023-04-24T04:26:32;6.93;;;6.23;;
5357;SDS011;2702;51.014;7.170;2023-04-24T04:28:59;7.13;;;6.50;;
5357;SDS011;2702;51.014;7.170;2023-04-24T04:31:25;11.23;;;6.40;;
5357;SDS011;2702;51.014;7.170;2023-04-24T04:33:51;7.03;;;6.07;;
5357;SDS011;2702;51.014;7.170;2023-04-24T04:36:17;5.67;;;5.17;;
5357;SDS011;2702;51.014;7.170;2023-04-24T04:38:43;5.70;;;5.20;;
5357;SDS011;2702;51.014;7.170;2023-04-24T04:41:10;6.53;;;5.83;;
5357;SDS011;2702;51.014;7.170;2023-04-24T04:43:36;5.87;;;5.27;;
5357;SDS011;2702;51.014;7.170;2023-04-24T04:46:03;6.13;;;5.53;;
5357;SDS011;2702;51.014;7.170;2023-04-24T04:48:29;5.80;;;5.30;;
5357;SDS011;2702;51.014;7.170;2023-04-24T04:50:56;6.37;;;5.77;;
5357;SDS011;2702;51.014;7.170;2023-04-24T04:53:23;6.17;;;5.67;;
5357;SDS011;2702;51.014;7.170;2023-04-24T04:55:49;7.20;;;4.90;;
5357;SDS011;2702;51.014;7.170;2023-04-24T04:58:15;6.90;;;5.60;;
5357;SDS011;2702;51.014;7.170;2023-04-24T05:00:41;6.50;;;6.00;;
5357;SDS011;2702;51.014;7.170;2023-04-24T05:03:07;5.30;;;4.90;;
5357;SDS011;2702;51.014;7.170;2023-04-24T05:05:33;6.13;;;5.63;;
5357;SDS011;2702;51.014;7.170;2023-04-24T05:07:59;7.60;;;6.23;;
5357;SDS011;2702;51.014;7.170;2023-04-24T05:10:25;5.60;;;5.10;;
5357;SDS011;2702;51.014;7.170;2023-04-24T05:12:51;6.07;;;5.57;;
5357;SDS011;2702;51.014;7.170;2023-04-24T05:15:17;6.53;;;5.90;;
5357;SDS011;2702;51.014;7.170;2023-04-24T05:17:43;6.17;;;5.57;;
5357;SDS011;2702;51.014;7.170;2023-04-24T05:20:09;6.07;;;5.57;;
5357;SDS011;2702;51.014;7.170;2023-04-24T05:22:35;6.07;;;5.47;;
5357;SDS011;2702;51.014;7.170;2023-04-24T05:25:01;6.00;;;5.50;;
5357;SDS011;2702;51.014;7.170;2023-04-24T05:27:27;6.30;;;5.70;;
5357;SDS011;2702;51.014;7.170;2023-04-24T05:29:53;6.57;;;5.30;;
5357;SDS011;2702;51.014;7.170;2023-04-24T05:32:19;6.70;;;5.90;;
5357;SDS011;2702;51.014;7.170;2023-04-24T05:34:45;6.37;;;5.70;;
5357;SDS011;2702;51.014;7.170;2023-04-24T05:37:11;6.60;;;5.53;;
5357;SDS011;2702;51.014;7.170;2023-04-24T05:39:38;8.00;;;6.00;;
5357;SDS011;2702;51.014;7.170;2023-04-24T05:42:04;5.83;;;5.20;;
5357;SDS011;2702;51.014;7.170;2023-04-24T05:44:30;6.40;;;5.80;;
5357;SDS011;2702;51.014;7.170;2023-04-24T05:46:56;6.13;;;5.63;;
5357;SDS011;2702;51.014;7.170;2023-04-24T05:49:22;7.10;;;6.37;;
5357;SDS011;2702;51.014;7.170;2023-04-24T05:51:48;6.57;;;5.97;;
5357;SDS011;2702;51.014;7.170;2023-04-24T05:54:14;6.37;;;5.87;;
5357;SDS011;2702;51.014;7.170;2023-04-24T05:56:40;7.40;;;6.00;;
5357;SDS011;2702;51.014;7.170;2023-04-24T05:59:06;7.30;;;6.00;;
5357;SDS011;2702;51.014;7.170;2023-04-24T06:01:33;6.70;;;6.00;;
5357;SDS011;2702;51.014;7.170;2023-04-24T06:03:59;7.33;;;6.63;;
5357;SDS011;2702;51.014;7.170;2023-04-24T06:06:25;7.53;;;6.90;;
5357;SDS011;2702;51.014;7.170;2023-04-24T06:08:52;7.73;;;7.03;;
5357;SDS011;2702;51.014;7.170;2023-04-24T06:11:18;7.37;;;6.67;;
5357;SDS011;2702;51.014;7.170;2023-04-24T06:13:44;7.80;;;7.10;;
5357;SDS011;2702;51.014;7.170;2023-04-24T06:16:10;8.20;;;6.90;;
5357;SDS011;2702;51.014;7.170;2023-04-24T06:18:36;8.37;;;7.67;;
5357;SDS011;2702;51.014;7.170;2023-04-24T06:21:02;9.73;;;7.00;;
5357;SDS011;2702;51.014;7.170;2023-04-24T06:23:29;7.70;;;7.00;;
5357;SDS011;2702;51.014;7.170;2023-04-24T06:25:57;12.70;;;7.20;;
5357;SDS011;2702;51.014;7.170;2023-04-24T06:28:23;7.60;;;6.90;;
5357;SDS011;2702;51.014;7.170;2023-04-24T06:30:49;7.57;;;6.87;;
5357;SDS011;2702;51.014;7.170;2023-04-24T06:33:16;8.47;;;7.57;;
5357;SDS011;2702;51.014;7.170;2023-04-24T06:35:42;9.03;;;7.20;;
5357;SDS011;2702;51.014;7.170;2023-04-24T06:38:08;8.43;;;7.63;;
5357;SDS011;2702;51.014;7.170;2023-04-24T06:40:34;10.10;;;7.60;;
5357;SDS011;2702;51.014;7.170;2023-04-24T06:43:00;7.23;;;6.53;;
5357;SDS011;2702;51.014;7.170;2023-04-24T06:45:28;8.57;;;7.67;;
5357;SDS011;2702;51.014;7.170;2023-04-24T06:47:55;9.00;;;8.00;;
5357;SDS011;2702;51.014;7.170;2023-04-24T06:50:21;7.90;;;7.10;;
5357;SDS011;2702;51.014;7.170;2023-04-24T06:52:47;8.50;;;7.63;;
5357;SDS011;2702;51.014;7.170;2023-04-24T06:55:13;7.27;;;6.57;;
5357;SDS011;2702;51.014;7.170;2023-04-24T06:57:41;7.73;;;7.00;;
5357;SDS011;2702;51.014;7.170;2023-04-24T07:00:09;8.10;;;6.97;;
5357;SDS011;2702;51.014;7.170;2023-04-24T07:02:36;8.53;;;6.77;;
5357;SDS011;2702;51.014;7.170;2023-04-24T07:05:03;6.90;;;6.27;;
5357;SDS011;2702;51.014;7.170;2023-04-24T07:07:30;7.10;;;5.50;;
5357;SDS011;2702;51.014;7.170;2023-04-24T07:09:56;5.47;;;4.97;;
5357;SDS011;2702;51.014;7.170;2023-04-24T07:12:22;4.83;;;4.43;;
5357;SDS011;2702;51.014;7.170;2023-04-24T07:14:48;3.70;;;3.40;;
5357;SDS011;2702;51.014;7.170;2023-04-24T07:17:15;5.67;;;4.67;;
5357;SDS011;2702;51.014;7.170;2023-04-24T07:19:41;4.57;;;4.17;;
5357;SDS011;2702;51.014;7.170;2023-04-24T07:22:07;4.43;;;3.90;;
5357;SDS011;2702;51.014;7.170;2023-04-24T07:24:33;4.20;;;3.80;;
5357;SDS011;2702;51.014;7.170;2023-04-24T07:26:59;3.97;;;3.43;;
5357;SDS011;2702;51.014;7.170;2023-04-24T07:29:26;3.80;;;3.50;;
5357;SDS011;2702;51.014;7.170;2023-04-24T07:31:52;3.30;;;3.10;;
5357;SDS011;2702;51.014;7.170;2023-04-24T07:34:19;3.00;;;2.80;;
5357;SDS011;2702;51.014;7.170;2023-04-24T07:36:45;3.63;;;3.33;;
5357;SDS011;2702;51.014;7.170;2023-04-24T07:39:11;3.47;;;3.17;;
5357;SDS011;2702;51.014;7.170;2023-04-24T07:41:37;3.40;;;3.20;;
5357;SDS011;2702;51.014;7.170;2023-04-24T07:44:03;3.40;;;3.10;;
5357;SDS011;2702;51.014;7.170;2023-04-24T07:46:30;3.40;;;3.10;;
5357;SDS011;2702;51.014;7.170;2023-04-24T07:48:56;3.30;;;3.00;;
5357;SDS011;2702;51.014;7.170;2023-04-24T07:51:22;3.83;;;3.40;;
5357;SDS011;2702;51.014;7.170;2023-04-24T07:53:48;2.77;;;2.57;;
5357;SDS011;2702;51.014;7.170;2023-04-24T07:56:13;3.33;;;3.03;;
5357;SDS011;2702;51.014;7.170;2023-04-24T07:58:40;3.17;;;2.93;;
5357;SDS011;2702;51.014;7.170;2023-04-24T08:01:06;2.63;;;2.43;;
5357;SDS011;2702;51.014;7.170;2023-04-24T08:03:32;3.53;;;1.63;;
5357;SDS011;2702;51.014;7.170;2023-04-24T08:05:58;2.47;;;1.70;;
5357;SDS011;2702;51.014;7.170;2023-04-24T08:08:24;1.83;;;1.47;;
5357;SDS011;2702;51.014;7.170;2023-04-24T08:10:50;1.53;;;1.43;;
5357;SDS011;2702;51.014;7.170;2023-04-24T08:13:16;1.20;;;1.00;;
5357;SDS011;2702;51.014;7.170;2023-04-24T08:15:42;1.93;;;1.40;;
5357;SDS011;2702;51.014;7.170;2023-04-24T08:18:08;3.47;;;1.53;;
5357;SDS011;2702;51.014;7.170;2023-04-24T08:20:37;2.27;;;1.40;;
5357;SDS011;2702;51.014;7.170;2023-04-24T08:23:02;1.33;;;1.23;;
5357;SDS011;2702;51.014;7.170;2023-04-24T08:25:28;1.47;;;1.37;;
5357;SDS011;2702;51.014;7.170;2023-04-24T08:27:54;1.10;;;1.00;;
5357;SDS011;2702;51.014;7.170;2023-04-24T08:30:20;1.60;;;1.20;;
5357;SDS011;2702;51.014;7.170;2023-04-24T08:32:46;1.50;;;1.40;;
5357;SDS011;2702;51.014;7.170;2023-04-24T08:35:12;1.10;;;1.10;;
5357;SDS011;2702;51.014;7.170;2023-04-24T08:37:38;1.07;;;1.00;;
5357;SDS011;2702;51.014;7.170;2023-04-24T08:40:05;1.37;;;1.27;;
5357;SDS011;2702;51.014;7.170;2023-04-24T08:42:40;1.77;;;1.50;;
5357;SDS011;2702;51.014;7.170;2023-04-24T08:45:08;1.63;;;1.53;;
5357;SDS011;2702;51.014;7.170;2023-04-24T08:47:37;2.07;;;1.87;;
5357;SDS011;2702;51.014;7.170;2023-04-24T08:50:05;3.03;;;2.47;;
5357;SDS011;2702;51.014;7.170;2023-04-24T08:52:32;1.73;;;1.63;;
5357;SDS011;2702;51.014;7.170;2023-04-24T08:54:59;2.20;;;1.87;;
5357;SDS011;2702;51.014;7.170;2023-04-24T08:57:26;1.83;;;1.70;;
5357;SDS011;2702;51.014;7.170;2023-04-24T08:59:53;2.10;;;1.77;;
5357;SDS011;2702;51.014;7.170;2023-04-24T09:02:20;2.30;;;2.10;;
5357;SDS011;2702;51.014;7.170;2023-04-24T09:04:49;2.40;;;2.20;;
5357;SDS011;2702;51.014;7.170;2023-04-24T09:07:16;2.80;;;2.50;;
5357;SDS011;2702;51.014;7.170;2023-04-24T09:09:44;2.40;;;2.20;;
5357;SDS011;2702;51.014;7.170;2023-04-24T09:12:11;3.67;;;2.30;;
5357;SDS011;2702;51.014;7.170;2023-04-24T09:14:37;3.00;;;2.50;;
5357;SDS011;2702;51.014;7.170;2023-04-24T09:17:07;2.87;;;2.63;;
5357;SDS011;2702;51.014;7.170;2023-04-24T09:19:33;5.20;;;3.47;;
5357;SDS011;2702;51.014;7.170;2023-04-24T09:21:59;3.10;;;2.80;;
5357;SDS011;2702;51.014;7.170;2023-04-24T09:24:30;4.40;;;3.70;;
5357;SDS011;2702;51.014;7.170;2023-04-24T09:26:56;4.30;;;3.83;;
5357;SDS011;2702;51.014;7.170;2023-04-24T09:29:24;8.13;;;4.90;;
5357;SDS011;2702;51.014;7.170;2023-04-24T09:31:50;5.17;;;4.47;;
5357;SDS011;2702;51.014;7.170;2023-04-24T09:34:21;5.20;;;4.03;;
5357;SDS011;2702;51.014;7.170;2023-04-24T09:36:48;5.37;;;4.70;;
5357;SDS011;2702;51.014;7.170;2023-04-24T09:39:15;5.67;;;4.13;;
5357;SDS011;2702;51.014;7.170;2023-04-24T09:41:49;5.40;;;4.90;;
5357;SDS011;2702;51.014;7.170;2023-04-24T09:44:16;4.50;;;4.10;;
5357;SDS011;2702;51.014;7.170;2023-04-24T09:46:50;6.90;;;5.17;;
5357;SDS011;2702;51.014;7.170;2023-04-24T09:51:50;7.10;;;5.20;;
5357;SDS011;2702;51.014;7.170;2023-04-24T09:54:18;7.40;;;5.20;;
5357;SDS011;2702;51.014;7.170;2023-04-24T09:56:50;7.03;;;5.07;;
5357;SDS011;2702;51.014;7.170;2023-04-24T09:59:19;6.60;;;5.23;;
5357;SDS011;2702;51.014;7.170;2023-04-24T10:01:45;6.30;;;5.10;;
5357;SDS011;2702;51.014;7.170;2023-04-24T10:04:17;6.13;;;5.60;;
5357;SDS011;2702;51.014;7.170;2023-04-24T10:06:48;8.63;;;6.13;;
5357;SDS011;2702;51.014;7.170;2023-04-24T10:09:19;6.80;;;5.77;;
5357;SDS011;2702;51.014;7.170;2023-04-24T10:11:47;6.77;;;6.07;;
5357;SDS011;2702;51.014;7.170;2023-04-24T10:14:17;10.33;;;7.07;;
5357;SDS011;2702;51.014;7.170;2023-04-24T10:16:45;9.27;;;6.83;;
5357;SDS011;2702;51.014;7.170;2023-04-24T10:19:12;9.03;;;6.60;;
5357;SDS011;2702;51.014;7.170;2023-04-24T10:21:40;10.30;;;7.67;;
5357;SDS011;2702;51.014;7.170;2023-04-24T10:24:14;9.97;;;8.30;;
5357;SDS011;2702;51.014;7.170;2023-04-24T10:26:42;12.37;;;7.30;;
5357;SDS011;2702;51.014;7.170;2023-04-24T10:29:09;10.07;;;7.63;;
5357;SDS011;2702;51.014;7.170;2023-04-24T10:31:37;10.40;;;8.37;;
5357;SDS011;2702;51.014;7.170;2023-04-24T10:34:04;13.43;;;7.93;;
5357;SDS011;2702;51.014;7.170;2023-04-24T10:36:32;11.20;;;9.07;;
5357;SDS011;2702;51.014;7.170;2023-04-24T10:39:01;15.53;;;8.83;;
5357;SDS011;2702;51.014;7.170;2023-04-24T10:41:29;10.20;;;8.63;;
5357;SDS011;2702;51.014;7.170;2023-04-24T10:44:06;12.03;;;7.80;;
5357;SDS011;2702;51.014;7.170;2023-04-24T10:46:32;10.33;;;8.00;;
5357;SDS011;2702;51.014;7.170;2023-04-24T10:48:58;8.90;;;7.03;;
5357;SDS011;2702;51.014;7.170;2023-04-24T10:51:24;8.27;;;6.63;;
5357;SDS011;2702;51.014;7.170;2023-04-24T10:54:28;8.20;;;7.30;;
5357;SDS011;2702;51.014;7.170;2023-04-24T11:00:10;9.43;;;7.43;;
5357;SDS011;2702;51.014;7.170;2023-04-24T11:02:39;7.93;;;6.70;;
5357;SDS011;2702;51.014;7.170;2023-04-24T11:05:08;12.40;;;6.57;;
5357;SDS011;2702;51.014;7.170;2023-04-24T11:10:44;8.10;;;6.00;;
5357;SDS011;2702;51.014;7.170;2023-04-24T11:13:10;8.30;;;6.40;;
5357;SDS011;2702;51.014;7.170;2023-04-24T11:15:41;7.20;;;4.73;;
5357;SDS011;2702;51.014;7.170;2023-04-24T11:18:13;7.57;;;5.03;;
5357;SDS011;2702;51.014;7.170;2023-04-24T11:20:44;8.87;;;5.13;;
5357;SDS011;2702;51.014;7.170;2023-04-24T11:23:12;10.70;;;4.50;;
5357;SDS011;2702;51.014;7.170;2023-04-24T11:25:39;5.20;;;4.70;;
5357;SDS011;2702;51.014;7.170;2023-04-24T11:28:06;7.67;;;4.63;;
5357;SDS011;2702;51.014;7.170;2023-04-24T11:30:32;6.43;;;4.70;;
5357;SDS011;2702;51.014;7.170;2023-04-24T11:33:02;7.60;;;4.07;;
5357;SDS011;2702;51.014;7.170;2023-04-24T11:35:30;7.60;;;4.20;;
5357;SDS011;2702;51.014;7.170;2023-04-24T11:38:02;6.40;;;4.37;;
5357;SDS011;2702;51.014;7.170;2023-04-24T11:40:29;7.10;;;3.93;;
5357;SDS011;2702;51.014;7.170;2023-04-24T11:42:55;7.20;;;4.30;;
5357;SDS011;2702;51.014;7.170;2023-04-24T11:45:22;6.90;;;4.30;;
5357;SDS011;2702;51.014;7.170;2023-04-24T11:47:49;9.53;;;4.30;;
5357;SDS011;2702;51.014;7.170;2023-04-24T11:50:16;4.93;;;4.20;;
5357;SDS011;2702;51.014;7.170;2023-04-24T11:52:44;10.20;;;4.73;;
5357;SDS011;2702;51.014;7.170;2023-04-24T11:57:44;6.03;;;5.33;;
5357;SDS011;2702;51.014;7.170;2023-04-24T12:00:21;9.80;;;4.80;;
5357;SDS011;2702;51.014;7.170;2023-04-24T12:02:48;8.23;;;4.70;;
5357;SDS011;2702;51.014;7.170;2023-04-24T12:05:27;7.10;;;5.03;;
5357;SDS011;2702;51.014;7.170;2023-04-24T12:07:56;7.63;;;4.90;;
5357;SDS011;2702;51.014;7.170;2023-04-24T12:10:22;11.10;;;4.83;;
5357;SDS011;2702;51.014;7.170;2023-04-24T12:12:50;12.27;;;5.53;;
5357;SDS011;2702;51.014;7.170;2023-04-24T12:15:17;7.30;;;5.23;;
5357;SDS011;2702;51.014;7.170;2023-04-24T12:17:44;13.83;;;5.80;;
5357;SDS011;2702;51.014;7.170;2023-04-24T12:20:11;7.07;;;4.90;;
5357;SDS011;2702;51.014;7.170;2023-04-24T12:22:54;9.40;;;6.00;;
5357;SDS011;2702;51.014;7.170;2023-04-24T12:25:23;10.07;;;5.50;;
5357;SDS011;2702;51.014;7.170;2023-04-24T12:30:34;7.50;;;5.70;;
5357;SDS011;2702;51.014;7.170;2023-04-24T12:33:03;10.43;;;5.30;;
5357;SDS011;2702;51.014;7.170;2023-04-24T12:35:29;6.67;;;5.20;;
5357;SDS011;2702;51.014;7.170;2023-04-24T12:38:10;9.90;;;5.87;;
5357;SDS011;2702;51.014;7.170;2023-04-24T12:40:38;5.53;;;4.87;;
5357;SDS011;2702;51.014;7.170;2023-04-24T12:45:43;8.30;;;4.90;;
5357;SDS011;2702;51.014;7.170;2023-04-24T12:48:10;9.10;;;5.20;;
5357;SDS011;2702;51.014;7.170;2023-04-24T12:50:37;10.20;;;4.60;;
5357;SDS011;2702;51.014;7.170;2023-04-24T12:53:03;7.47;;;4.60;;
5357;SDS011;2702;51.014;7.170;2023-04-24T12:55:29;5.37;;;4.63;;
5357;SDS011;2702;51.014;7.170;2023-04-24T12:57:55;5.00;;;4.17;;
5357;SDS011;2702;51.014;7.170;2023-04-24T13:00:21;5.70;;;4.27;;
5357;SDS011;2702;51.014;7.170;2023-04-24T13:02:47;6.33;;;4.50;;
5357;SDS011;2702;51.014;7.170;2023-04-24T13:05:13;6.60;;;4.40;;
5357;SDS011;2702;51.014;7.170;2023-04-24T13:07:39;6.37;;;4.40;;
5357;SDS011;2702;51.014;7.170;2023-04-24T13:10:05;5.17;;;4.37;;
5357;SDS011;2702;51.014;7.170;2023-04-24T13:12:32;7.13;;;4.03;;
5357;SDS011;2702;51.014;7.170;2023-04-24T13:14:58;7.03;;;5.00;;
5357;SDS011;2702;51.014;7.170;2023-04-24T13:17:24;6.07;;;4.10;;
5357;SDS011;2702;51.014;7.170;2023-04-24T13:19:50;4.73;;;3.80;;
5357;SDS011;2702;51.014;7.170;2023-04-24T13:22:17;5.63;;;3.37;;
5357;SDS011;2702;51.014;7.170;2023-04-24T13:24:46;5.70;;;3.90;;
5357;SDS011;2702;51.014;7.170;2023-04-24T13:27:14;7.30;;;4.17;;
5357;SDS011;2702;51.014;7.170;2023-04-24T13:29:41;4.40;;;4.00;;
5357;SDS011;2702;51.014;7.170;2023-04-24T13:32:07;5.33;;;3.97;;
5357;SDS011;2702;51.014;7.170;2023-04-24T13:34:34;5.77;;;4.10;;
5357;SDS011;2702;51.014;7.170;2023-04-24T13:37:00;5.90;;;4.67;;
5357;SDS011;2702;51.014;7.170;2023-04-24T13:39:28;7.13;;;4.20;;
5357;SDS011;2702;51.014;7.170;2023-04-24T13:41:55;7.83;;;4.20;;
5357;SDS011;2702;51.014;7.170;2023-04-24T13:44:21;4.10;;;3.60;;
5357;SDS011;2702;51.014;7.170;2023-04-24T13:46:48;8.53;;;4.20;;
5357;SDS011;2702;51.014;7.170;2023-04-24T13:49:17;6.30;;;4.10;;
5357;SDS011;2702;51.014;7.170;2023-04-24T13:51:43;5.93;;;4.20;;
5357;SDS011;2702;51.014;7.170;2023-04-24T13:54:10;6.27;;;3.70;;
5357;SDS011;2702;51.014;7.170;2023-04-24T13:56:36;6.70;;;3.53;;
5357;SDS011;2702;51.014;7.170;2023-04-24T13:59:03;5.43;;;4.33;;
5357;SDS011;2702;51.014;7.170;2023-04-24T14:01:30;5.03;;;3.83;;
5357;SDS011;2702;51.014;7.170;2023-04-24T14:03:56;5.50;;;4.03;;
5357;SDS011;2702;51.014;7.170;2023-04-24T14:06:22;5.73;;;4.50;;
5357;SDS011;2702;51.014;7.170;2023-04-24T14:08:49;6.23;;;3.80;;
5357;SDS011;2702;51.014;7.170;2023-04-24T14:11:15;4.53;;;4.13;;
5357;SDS011;2702;51.014;7.170;2023-04-24T14:13:42;4.70;;;4.10;;
5357;SDS011;2702;51.014;7.170;2023-04-24T14:16:09;3.83;;;3.33;;
5357;SDS011;2702;51.014;7.170;2023-04-24T14:18:36;4.43;;;3.90;;
5357;SDS011;2702;51.014;7.170;2023-04-24T14:21:04;5.20;;;3.57;;
5357;SDS011;2702;51.014;7.170;2023-04-24T14:23:32;7.83;;;3.53;;
5357;SDS011;2702;51.014;7.170;2023-04-24T14:25:58;3.63;;;3.33;;
5357;SDS011;2702;51.014;7.170;2023-04-24T14:28:24;5.40;;;3.60;;
5357;SDS011;2702;51.014;7.170;2023-04-24T14:30:50;5.00;;;4.13;;
5357;SDS011;2702;51.014;7.170;2023-04-24T14:33:16;4.97;;;4.40;;
5357;SDS011;2702;51.014;7.170;2023-04-24T14:35:43;8.57;;;4.50;;
5357;SDS011;2702;51.014;7.170;2023-04-24T14:38:10;5.23;;;4.60;;
5357;SDS011;2702;51.014;7.170;2023-04-24T14:40:36;6.67;;;4.73;;
5357;SDS011;2702;51.014;7.170;2023-04-24T14:43:02;6.60;;;4.27;;
5357;SDS011;2702;51.014;7.170;2023-04-24T14:45:28;5.80;;;4.03;;
5357;SDS011;2702;51.014;7.170;2023-04-24T14:47:55;7.67;;;4.07;;
5357;SDS011;2702;51.014;7.170;2023-04-24T14:50:21;5.03;;;4.43;;
5357;SDS011;2702;51.014;7.170;2023-04-24T14:52:47;7.67;;;5.70;;
5357;SDS011;2702;51.014;7.170;2023-04-24T14:55:13;5.50;;;4.70;;
5357;SDS011;2702;51.014;7.170;2023-04-24T14:57:39;6.67;;;4.40;;
5357;SDS011;2702;51.014;7.170;2023-04-24T15:00:06;5.90;;;4.83;;
5357;SDS011;2702;51.014;7.170;2023-04-24T15:02:35;6.23;;;4.73;;
5357;SDS011;2702;51.014;7.170;2023-04-24T15:05:05;6.70;;;4.00;;
5357;SDS011;2702;51.014;7.170;2023-04-24T15:07:31;4.97;;;3.63;;
5357;SDS011;2702;51.014;7.170;2023-04-24T15:09:58;3.73;;;3.10;;
5357;SDS011;2702;51.014;7.170;2023-04-24T15:12:24;4.80;;;4.40;;
5357;SDS011;2702;51.014;7.170;2023-04-24T15:14:57;7.87;;;2.93;;
5357;SDS011;2702;51.014;7.170;2023-04-24T15:17:26;3.53;;;3.23;;
5357;SDS011;2702;51.014;7.170;2023-04-24T15:19:52;4.80;;;3.03;;
5357;SDS011;2702;51.014;7.170;2023-04-24T15:22:18;3.63;;;3.30;;
5357;SDS011;2702;51.014;7.170;2023-04-24T15:24:44;5.00;;;3.53;;
5357;SDS011;2702;51.014;7.170;2023-04-24T15:27:10;7.30;;;3.70;;
5357;SDS011;2702;51.014;7.170;2023-04-24T15:29:37;3.43;;;3.13;;